sensor_id;sensor_type;location;lat;lon;timestamp;temperature;humidity
78619;DHT22;67941;52.506;5.470;2023-04-25T00:00:09;6.40;77.60
78619;DHT22;67941;52.506;5.470;2023-04-25T00:02:39;6.30;77.60
78619;DHT22;67941;52.506;5.470;2023-04-25T00:05:08;6.30;77.50
78619;DHT22;67941;52.506;5.470;2023-04-25T00:07:37;6.30;77.50
78619;DHT22;67941;52.506;5.470;2023-04-25T00:10:09;6.30;77.50
78619;DHT22;67941;52.506;5.470;2023-04-25T00:12:38;6.30;77.50
78619;DHT22;67941;52.506;5.470;2023-04-25T00:15:10;6.30;77.50
78619;DHT22;67941;52.506;5.470;2023-04-25T00:17:39;6.30;77.40
78619;DHT22;67941;52.506;5.470;2023-04-25T00:20:09;6.30;77.40
78619;DHT22;67941;52.506;5.470;2023-04-25T00:22:38;6.30;77.40
78619;DHT22;67941;52.506;5.470;2023-04-25T00:25:08;6.30;77.40
78619;DHT22;67941;52.506;5.470;2023-04-25T00:27:37;6.30;77.40
78619;DHT22;67941;52.506;5.470;2023-04-25T00:30:11;6.30;77.40
78619;DHT22;67941;52.506;5.470;2023-04-25T00:32:40;6.30;77.40
78619;DHT22;67941;52.506;5.470;2023-04-25T00:35:10;6.40;77.40
78619;DHT22;67941;52.506;5.470;2023-04-25T00:37:38;6.40;77.40
78619;DHT22;67941;52.506;5.470;2023-04-25T00:40:08;6.50;77.40
78619;DHT22;67941;52.506;5.470;2023-04-25T00:42:37;6.50;77.30
78619;DHT22;67941;52.506;5.470;2023-04-25T00:45:12;6.50;77.30
78619;DHT22;67941;52.506;5.470;2023-04-25T00:47:41;6.60;77.10
78619;DHT22;67941;52.506;5.470;2023-04-25T00:50:11;6.60;77.10
78619;DHT22;67941;52.506;5.470;2023-04-25T00:52:44;6.60;77.10
78619;DHT22;67941;52.506;5.470;2023-04-25T00:55:13;6.60;77.10
78619;DHT22;67941;52.506;5.470;2023-04-25T00:57:42;6.70;77.00
78619;DHT22;67941;52.506;5.470;2023-04-25T01:00:14;6.70;77.00
78619;DHT22;67941;52.506;5.470;2023-04-25T01:02:43;6.70;76.90
78619;DHT22;67941;52.506;5.470;2023-04-25T01:05:12;6.70;76.80
78619;DHT22;67941;52.506;5.470;2023-04-25T01:07:41;6.60;76.90
78619;DHT22;67941;52.506;5.470;2023-04-25T01:10:11;6.60;76.90
78619;DHT22;67941;52.506;5.470;2023-04-25T01:12:39;6.60;76.90
78619;DHT22;67941;52.506;5.470;2023-04-25T01:15:09;6.60;76.90
78619;DHT22;67941;52.506;5.470;2023-04-25T01:17:40;6.60;76.90
78619;DHT22;67941;52.506;5.470;2023-04-25T01:20:11;6.70;76.90
78619;DHT22;67941;52.506;5.470;2023-04-25T01:22:44;6.70;76.90
78619;DHT22;67941;52.506;5.470;2023-04-25T01:25:14;6.70;76.90
78619;DHT22;67941;52.506;5.470;2023-04-25T01:27:44;6.70;76.70
78619;DHT22;67941;52.506;5.470;2023-04-25T01:30:13;6.70;76.70
78619;DHT22;67941;52.506;5.470;2023-04-25T01:32:43;6.70;76.70
78619;DHT22;67941;52.506;5.470;2023-04-25T01:35:12;6.70;76.60
78619;DHT22;67941;52.506;5.470;2023-04-25T01:37:44;6.70;76.50
78619;DHT22;67941;52.506;5.470;2023-04-25T01:40:13;6.70;76.40
78619;DHT22;67941;52.506;5.470;2023-04-25T01:42:44;6.70;76.30
78619;DHT22;67941;52.506;5.470;2023-04-25T01:45:13;6.60;76.20
78619;DHT22;67941;52.506;5.470;2023-04-25T01:47:42;6.50;76.20
78619;DHT22;67941;52.506;5.470;2023-04-25T01:50:15;6.50;76.20
78619;DHT22;67941;52.506;5.470;2023-04-25T01:52:48;6.40;76.10
78619;DHT22;67941;52.506;5.470;2023-04-25T01:55:18;6.30;76.20
78619;DHT22;67941;52.506;5.470;2023-04-25T01:58:01;6.30;76.30
78619;DHT22;67941;52.506;5.470;2023-04-25T02:00:55;6.20;76.50
78619;DHT22;67941;52.506;5.470;2023-04-25T02:03:31;6.20;76.60
78619;DHT22;67941;52.506;5.470;2023-04-25T02:06:00;6.20;76.60
78619;DHT22;67941;52.506;5.470;2023-04-25T02:08:49;6.20;76.60
78619;DHT22;67941;52.506;5.470;2023-04-25T02:11:18;6.20;76.60
78619;DHT22;67941;52.506;5.470;2023-04-25T02:13:55;6.20;76.60
78619;DHT22;67941;52.506;5.470;2023-04-25T02:16:37;6.30;76.50
78619;DHT22;67941;52.506;5.470;2023-04-25T02:19:07;6.20;76.40
78619;DHT22;67941;52.506;5.470;2023-04-25T02:21:36;6.20;76.40
78619;DHT22;67941;52.506;5.470;2023-04-25T02:24:08;6.20;76.40
78619;DHT22;67941;52.506;5.470;2023-04-25T02:26:37;6.20;76.40
78619;DHT22;67941;52.506;5.470;2023-04-25T02:29:09;6.10;76.50
78619;DHT22;67941;52.506;5.470;2023-04-25T02:31:38;6.10;76.50
78619;DHT22;67941;52.506;5.470;2023-04-25T02:34:07;6.10;76.70
78619;DHT22;67941;52.506;5.470;2023-04-25T02:36:38;6.10;76.80
78619;DHT22;67941;52.506;5.470;2023-04-25T02:39:10;6.10;76.80
78619;DHT22;67941;52.506;5.470;2023-04-25T02:41:38;6.20;76.90
78619;DHT22;67941;52.506;5.470;2023-04-25T02:44:07;6.30;76.80
78619;DHT22;67941;52.506;5.470;2023-04-25T02:46:37;6.40;76.80
78619;DHT22;67941;52.506;5.470;2023-04-25T02:49:06;6.40;76.80
78619;DHT22;67941;52.506;5.470;2023-04-25T02:51:37;6.50;76.70
78619;DHT22;67941;52.506;5.470;2023-04-25T02:54:05;6.50;76.60
78619;DHT22;67941;52.506;5.470;2023-04-25T02:56:41;6.50;76.50
78619;DHT22;67941;52.506;5.470;2023-04-25T02:59:15;6.50;76.50
78619;DHT22;67941;52.506;5.470;2023-04-25T03:01:44;6.50;76.50
78619;DHT22;67941;52.506;5.470;2023-04-25T03:04:13;6.50;76.60
78619;DHT22;67941;52.506;5.470;2023-04-25T03:06:42;6.60;76.70
78619;DHT22;67941;52.506;5.470;2023-04-25T03:09:11;6.60;76.70
78619;DHT22;67941;52.506;5.470;2023-04-25T03:11:44;6.60;76.70
78619;DHT22;67941;52.506;5.470;2023-04-25T03:14:14;6.70;76.70
78619;DHT22;67941;52.506;5.470;2023-04-25T03:16:43;6.70;76.70
78619;DHT22;67941;52.506;5.470;2023-04-25T03:19:12;6.80;76.60
78619;DHT22;67941;52.506;5.470;2023-04-25T03:21:43;6.80;76.60
78619;DHT22;67941;52.506;5.470;2023-04-25T03:24:12;6.80;76.50
78619;DHT22;67941;52.506;5.470;2023-04-25T03:26:43;6.80;76.40
78619;DHT22;67941;52.506;5.470;2023-04-25T03:29:12;6.70;76.40
78619;DHT22;67941;52.506;5.470;2023-04-25T03:31:43;6.70;76.30
78619;DHT22;67941;52.506;5.470;2023-04-25T03:34:12;6.70;76.30
78619;DHT22;67941;52.506;5.470;2023-04-25T03:36:41;6.60;76.30
78619;DHT22;67941;52.506;5.470;2023-04-25T03:39:10;6.60;76.30
78619;DHT22;67941;52.506;5.470;2023-04-25T03:41:44;6.60;76.20
78619;DHT22;67941;52.506;5.470;2023-04-25T03:44:14;6.60;76.20
78619;DHT22;67941;52.506;5.470;2023-04-25T03:46:43;6.60;76.20
78619;DHT22;67941;52.506;5.470;2023-04-25T03:49:13;6.60;76.20
78619;DHT22;67941;52.506;5.470;2023-04-25T03:51:56;6.60;76.30
78619;DHT22;67941;52.506;5.470;2023-04-25T03:54:27;6.60;76.30
78619;DHT22;67941;52.506;5.470;2023-04-25T03:57:05;6.70;76.20
78619;DHT22;67941;52.506;5.470;2023-04-25T03:59:37;6.70;76.10
78619;DHT22;67941;52.506;5.470;2023-04-25T04:02:08;6.60;76.00
78619;DHT22;67941;52.506;5.470;2023-04-25T04:04:38;6.60;75.90
78619;DHT22;67941;52.506;5.470;2023-04-25T04:07:07;6.60;75.90
78619;DHT22;67941;52.506;5.470;2023-04-25T04:09:39;6.50;75.90
78619;DHT22;67941;52.506;5.470;2023-04-25T04:12:16;6.50;75.90
78619;DHT22;67941;52.506;5.470;2023-04-25T04:14:45;6.40;76.00
78619;DHT22;67941;52.506;5.470;2023-04-25T04:17:13;6.40;76.00
78619;DHT22;67941;52.506;5.470;2023-04-25T04:19:42;6.30;76.10
78619;DHT22;67941;52.506;5.470;2023-04-25T04:22:18;6.30;76.00
78619;DHT22;67941;52.506;5.470;2023-04-25T04:24:48;6.30;76.10
78619;DHT22;67941;52.506;5.470;2023-04-25T04:27:24;6.30;76.10
78619;DHT22;67941;52.506;5.470;2023-04-25T04:30:08;6.30;76.10
78619;DHT22;67941;52.506;5.470;2023-04-25T04:32:50;6.30;76.10
78619;DHT22;67941;52.506;5.470;2023-04-25T04:35:20;6.40;76.10
78619;DHT22;67941;52.506;5.470;2023-04-25T04:37:49;6.40;76.20
78619;DHT22;67941;52.506;5.470;2023-04-25T04:40:20;6.40;76.10
78619;DHT22;67941;52.506;5.470;2023-04-25T04:43:00;6.50;76.20
78619;DHT22;67941;52.506;5.470;2023-04-25T04:45:47;6.50;76.20
78619;DHT22;67941;52.506;5.470;2023-04-25T04:48:42;6.50;76.20
78619;DHT22;67941;52.506;5.470;2023-04-25T04:51:37;6.60;76.20
78619;DHT22;67941;52.506;5.470;2023-04-25T04:54:25;6.60;76.20
78619;DHT22;67941;52.506;5.470;2023-04-25T04:57:10;6.60;76.20
78619;DHT22;67941;52.506;5.470;2023-04-25T04:59:55;6.60;76.20
78619;DHT22;67941;52.506;5.470;2023-04-25T05:02:44;6.70;76.20
78619;DHT22;67941;52.506;5.470;2023-04-25T05:05:38;6.70;76.20
78619;DHT22;67941;52.506;5.470;2023-04-25T05:08:29;6.70;76.20
78619;DHT22;67941;52.506;5.470;2023-04-25T05:11:13;6.80;76.20
78619;DHT22;67941;52.506;5.470;2023-04-25T05:13:55;6.80;76.10
78619;DHT22;67941;52.506;5.470;2023-04-25T05:17:05;6.80;76.00
78619;DHT22;67941;52.506;5.470;2023-04-25T05:19:58;6.80;75.90
78619;DHT22;67941;52.506;5.470;2023-04-25T05:22:54;6.80;75.90
78619;DHT22;67941;52.506;5.470;2023-04-25T05:25:38;6.80;75.90
78619;DHT22;67941;52.506;5.470;2023-04-25T05:28:14;6.70;75.80
78619;DHT22;67941;52.506;5.470;2023-04-25T05:30:54;6.70;75.80
78619;DHT22;67941;52.506;5.470;2023-04-25T05:33:46;6.70;75.90
78619;DHT22;67941;52.506;5.470;2023-04-25T05:36:15;6.70;76.00
78619;DHT22;67941;52.506;5.470;2023-04-25T05:38:44;6.80;76.00
78619;DHT22;67941;52.506;5.470;2023-04-25T05:41:13;6.80;76.00
78619;DHT22;67941;52.506;5.470;2023-04-25T05:43:50;6.90;75.90
78619;DHT22;67941;52.506;5.470;2023-04-25T05:46:34;6.90;75.90
78619;DHT22;67941;52.506;5.470;2023-04-25T05:49:21;7.00;75.80
78619;DHT22;67941;52.506;5.470;2023-04-25T05:51:58;7.00;75.80
78619;DHT22;67941;52.506;5.470;2023-04-25T05:54:46;7.00;75.70
78619;DHT22;67941;52.506;5.470;2023-04-25T05:57:22;7.10;75.70
78619;DHT22;67941;52.506;5.470;2023-04-25T05:59:53;7.20;75.70
78619;DHT22;67941;52.506;5.470;2023-04-25T06:02:27;7.20;75.70
78619;DHT22;67941;52.506;5.470;2023-04-25T06:04:58;7.20;75.70
78619;DHT22;67941;52.506;5.470;2023-04-25T06:07:29;7.40;75.70
78619;DHT22;67941;52.506;5.470;2023-04-25T06:09:58;7.40;75.70
78619;DHT22;67941;52.506;5.470;2023-04-25T06:12:27;7.50;75.60
78619;DHT22;67941;52.506;5.470;2023-04-25T06:14:56;7.50;75.60
78619;DHT22;67941;52.506;5.470;2023-04-25T06:17:25;7.60;75.60
78619;DHT22;67941;52.506;5.470;2023-04-25T06:19:54;7.70;75.50
78619;DHT22;67941;52.506;5.470;2023-04-25T06:22:26;7.80;75.40
78619;DHT22;67941;52.506;5.470;2023-04-25T06:24:56;7.80;75.40
78619;DHT22;67941;52.506;5.470;2023-04-25T06:27:27;8.00;75.30
78619;DHT22;67941;52.506;5.470;2023-04-25T06:29:56;8.00;75.30
78619;DHT22;67941;52.506;5.470;2023-04-25T06:32:25;8.00;75.00
78619;DHT22;67941;52.506;5.470;2023-04-25T06:35:00;8.00;74.80
78619;DHT22;67941;52.506;5.470;2023-04-25T06:37:31;7.90;74.80
78619;DHT22;67941;52.506;5.470;2023-04-25T06:40:01;7.80;74.90
78619;DHT22;67941;52.506;5.470;2023-04-25T06:42:30;7.80;75.20
78619;DHT22;67941;52.506;5.470;2023-04-25T06:45:06;7.80;75.30
78619;DHT22;67941;52.506;5.470;2023-04-25T06:47:35;7.80;75.20
78619;DHT22;67941;52.506;5.470;2023-04-25T06:50:05;7.90;75.00
78619;DHT22;67941;52.506;5.470;2023-04-25T06:52:38;7.90;74.80
78619;DHT22;67941;52.506;5.470;2023-04-25T06:55:25;7.90;74.70
78619;DHT22;67941;52.506;5.470;2023-04-25T06:58:12;7.90;74.60
78619;DHT22;67941;52.506;5.470;2023-04-25T07:00:52;7.80;74.40
78619;DHT22;67941;52.506;5.470;2023-04-25T07:03:23;7.80;74.50
78619;DHT22;67941;52.506;5.470;2023-04-25T07:05:57;7.60;74.60
78619;DHT22;67941;52.506;5.470;2023-04-25T07:08:29;7.60;74.70
78619;DHT22;67941;52.506;5.470;2023-04-25T07:10:58;7.60;75.00
78619;DHT22;67941;52.506;5.470;2023-04-25T07:13:28;7.80;75.20
78619;DHT22;67941;52.506;5.470;2023-04-25T07:15:57;8.00;75.30
78619;DHT22;67941;52.506;5.470;2023-04-25T07:18:28;8.20;75.40
78619;DHT22;67941;52.506;5.470;2023-04-25T07:20:58;8.40;75.20
78619;DHT22;67941;52.506;5.470;2023-04-25T07:23:31;8.50;75.00
78619;DHT22;67941;52.506;5.470;2023-04-25T07:26:04;8.60;74.80
78619;DHT22;67941;52.506;5.470;2023-04-25T07:28:33;8.60;74.70
78619;DHT22;67941;52.506;5.470;2023-04-25T07:31:04;8.70;74.70
78619;DHT22;67941;52.506;5.470;2023-04-25T07:33:33;8.80;74.40
78619;DHT22;67941;52.506;5.470;2023-04-25T07:36:03;8.90;74.20
78619;DHT22;67941;52.506;5.470;2023-04-25T07:38:34;8.90;74.20
78619;DHT22;67941;52.506;5.470;2023-04-25T07:41:03;9.00;74.10
78619;DHT22;67941;52.506;5.470;2023-04-25T07:43:32;9.00;74.20
78619;DHT22;67941;52.506;5.470;2023-04-25T07:46:03;9.10;74.20
78619;DHT22;67941;52.506;5.470;2023-04-25T07:48:34;9.20;74.00
78619;DHT22;67941;52.506;5.470;2023-04-25T07:51:04;9.20;73.80
78619;DHT22;67941;52.506;5.470;2023-04-25T07:53:37;9.20;73.40
78619;DHT22;67941;52.506;5.470;2023-04-25T07:56:11;9.10;73.20
78619;DHT22;67941;52.506;5.470;2023-04-25T07:58:43;9.00;73.00
78619;DHT22;67941;52.506;5.470;2023-04-25T08:01:14;8.80;73.10
78619;DHT22;67941;52.506;5.470;2023-04-25T08:03:49;8.60;73.20
78619;DHT22;67941;52.506;5.470;2023-04-25T08:06:23;8.50;73.20
78619;DHT22;67941;52.506;5.470;2023-04-25T08:09:06;8.40;73.30
78619;DHT22;67941;52.506;5.470;2023-04-25T08:11:38;8.40;73.30
78619;DHT22;67941;52.506;5.470;2023-04-25T08:14:09;8.30;73.20
78619;DHT22;67941;52.506;5.470;2023-04-25T08:19:24;8.30;73.10
78619;DHT22;67941;52.506;5.470;2023-04-25T08:21:53;8.30;73.00
78619;DHT22;67941;52.506;5.470;2023-04-25T08:24:31;8.30;72.90
78619;DHT22;67941;52.506;5.470;2023-04-25T08:27:00;8.20;73.00
78619;DHT22;67941;52.506;5.470;2023-04-25T08:29:30;8.20;73.00
78619;DHT22;67941;52.506;5.470;2023-04-25T08:31:59;8.20;72.90
78619;DHT22;67941;52.506;5.470;2023-04-25T08:34:29;8.20;72.70
78619;DHT22;67941;52.506;5.470;2023-04-25T08:37:02;8.20;72.80
78619;DHT22;67941;52.506;5.470;2023-04-25T08:39:50;8.20;72.90
78619;DHT22;67941;52.506;5.470;2023-04-25T08:42:36;8.30;73.00
78619;DHT22;67941;52.506;5.470;2023-04-25T08:45:07;8.40;73.00
78619;DHT22;67941;52.506;5.470;2023-04-25T08:47:41;8.50;73.20
78619;DHT22;67941;52.506;5.470;2023-04-25T08:50:11;8.80;73.40
78619;DHT22;67941;52.506;5.470;2023-04-25T08:52:44;9.10;73.30
78619;DHT22;67941;52.506;5.470;2023-04-25T08:55:17;9.40;72.90
78619;DHT22;67941;52.506;5.470;2023-04-25T08:57:46;9.50;72.20
78619;DHT22;67941;52.506;5.470;2023-04-25T09:00:17;9.40;71.50
78619;DHT22;67941;52.506;5.470;2023-04-25T09:02:47;9.20;71.20
78619;DHT22;67941;52.506;5.470;2023-04-25T09:05:16;8.90;71.20
78619;DHT22;67941;52.506;5.470;2023-04-25T09:07:45;8.50;71.30
78619;DHT22;67941;52.506;5.470;2023-04-25T09:10:16;8.10;71.60
78619;DHT22;67941;52.506;5.470;2023-04-25T09:13:02;7.80;71.80
78619;DHT22;67941;52.506;5.470;2023-04-25T09:15:47;7.50;71.90
78619;DHT22;67941;52.506;5.470;2023-04-25T09:18:35;7.30;72.10
78619;DHT22;67941;52.506;5.470;2023-04-25T09:21:06;7.10;72.50
78619;DHT22;67941;52.506;5.470;2023-04-25T09:23:40;7.00;72.70
78619;DHT22;67941;52.506;5.470;2023-04-25T09:26:14;7.00;73.00
78619;DHT22;67941;52.506;5.470;2023-04-25T09:28:43;7.10;73.50
78619;DHT22;67941;52.506;5.470;2023-04-25T09:31:22;7.40;73.70
78619;DHT22;67941;52.506;5.470;2023-04-25T09:33:59;7.60;73.80
78619;DHT22;67941;52.506;5.470;2023-04-25T09:36:35;8.00;73.80
78619;DHT22;67941;52.506;5.470;2023-04-25T09:39:33;8.30;73.50
78619;DHT22;67941;52.506;5.470;2023-04-25T09:42:14;8.50;73.20
78619;DHT22;67941;52.506;5.470;2023-04-25T09:44:44;8.60;72.70
78619;DHT22;67941;52.506;5.470;2023-04-25T09:47:15;8.60;72.50
78619;DHT22;67941;52.506;5.470;2023-04-25T09:49:44;8.40;72.30
78619;DHT22;67941;52.506;5.470;2023-04-25T09:52:15;8.30;72.40
78619;DHT22;67941;52.506;5.470;2023-04-25T09:55:08;8.20;72.50
78619;DHT22;67941;52.506;5.470;2023-04-25T09:57:40;8.10;72.90
78619;DHT22;67941;52.506;5.470;2023-04-25T10:00:10;8.20;73.00
78619;DHT22;67941;52.506;5.470;2023-04-25T10:02:43;8.20;73.10
78619;DHT22;67941;52.506;5.470;2023-04-25T10:05:26;8.30;73.30
78619;DHT22;67941;52.506;5.470;2023-04-25T10:07:56;8.40;73.20
78619;DHT22;67941;52.506;5.470;2023-04-25T10:10:25;8.40;73.00
78619;DHT22;67941;52.506;5.470;2023-04-25T10:12:57;8.50;72.70
78619;DHT22;67941;52.506;5.470;2023-04-25T10:15:27;8.60;72.70
78619;DHT22;67941;52.506;5.470;2023-04-25T10:17:56;8.60;72.70
78619;DHT22;67941;52.506;5.470;2023-04-25T10:20:26;8.90;72.60
78619;DHT22;67941;52.506;5.470;2023-04-25T10:22:58;9.00;72.30
78619;DHT22;67941;52.506;5.470;2023-04-25T10:25:32;9.20;72.10
78619;DHT22;67941;52.506;5.470;2023-04-25T10:28:04;9.20;71.90
78619;DHT22;67941;52.506;5.470;2023-04-25T10:30:33;9.20;71.70
78619;DHT22;67941;52.506;5.470;2023-04-25T10:33:16;9.20;71.80
78619;DHT22;67941;52.506;5.470;2023-04-25T10:35:46;9.20;71.80
78619;DHT22;67941;52.506;5.470;2023-04-25T10:38:14;9.40;72.10
78619;DHT22;67941;52.506;5.470;2023-04-25T10:41:02;9.60;71.60
78619;DHT22;67941;52.506;5.470;2023-04-25T10:43:38;9.60;71.00
78619;DHT22;67941;52.506;5.470;2023-04-25T10:46:28;9.50;70.80
78619;DHT22;67941;52.506;5.470;2023-04-25T10:48:58;9.40;70.50
78619;DHT22;67941;52.506;5.470;2023-04-25T10:51:29;9.20;70.60
78619;DHT22;67941;52.506;5.470;2023-04-25T10:54:00;9.00;70.70
78619;DHT22;67941;52.506;5.470;2023-04-25T10:56:31;9.00;70.60
78619;DHT22;67941;52.506;5.470;2023-04-25T10:59:11;8.90;70.60
78619;DHT22;67941;52.506;5.470;2023-04-25T11:01:41;8.80;70.50
78619;DHT22;67941;52.506;5.470;2023-04-25T11:04:20;8.80;70.50
78619;DHT22;67941;52.506;5.470;2023-04-25T11:07:02;8.80;70.50
78619;DHT22;67941;52.506;5.470;2023-04-25T11:09:34;8.80;70.50
78619;DHT22;67941;52.506;5.470;2023-04-25T11:12:06;8.80;70.50
78619;DHT22;67941;52.506;5.470;2023-04-25T11:14:39;8.90;70.30
78619;DHT22;67941;52.506;5.470;2023-04-25T11:17:09;8.90;70.10
78619;DHT22;67941;52.506;5.470;2023-04-25T11:19:37;8.90;70.10
78619;DHT22;67941;52.506;5.470;2023-04-25T11:22:06;9.00;69.90
78619;DHT22;67941;52.506;5.470;2023-04-25T11:24:35;9.00;69.80
78619;DHT22;67941;52.506;5.470;2023-04-25T11:27:05;9.20;70.00
78619;DHT22;67941;52.506;5.470;2023-04-25T11:29:35;9.40;70.00
78619;DHT22;67941;52.506;5.470;2023-04-25T11:32:06;9.60;70.10
78619;DHT22;67941;52.506;5.470;2023-04-25T11:34:35;9.90;70.00
78619;DHT22;67941;52.506;5.470;2023-04-25T11:37:04;10.10;69.90
78619;DHT22;67941;52.506;5.470;2023-04-25T11:39:51;10.30;69.80
78619;DHT22;67941;52.506;5.470;2023-04-25T11:42:20;10.50;70.00
78619;DHT22;67941;52.506;5.470;2023-04-25T11:44:49;10.70;70.00
78619;DHT22;67941;52.506;5.470;2023-04-25T11:47:28;10.90;69.80
78619;DHT22;67941;52.506;5.470;2023-04-25T11:49:58;11.00;69.40
78619;DHT22;67941;52.506;5.470;2023-04-25T11:52:38;11.00;69.50
78619;DHT22;67941;52.506;5.470;2023-04-25T11:55:09;11.00;69.30
78619;DHT22;67941;52.506;5.470;2023-04-25T11:57:40;11.00;69.30
78619;DHT22;67941;52.506;5.470;2023-04-25T12:00:11;10.90;69.30
78619;DHT22;67941;52.506;5.470;2023-04-25T12:02:45;10.90;69.40
78619;DHT22;67941;52.506;5.470;2023-04-25T12:05:15;10.90;69.10
78619;DHT22;67941;52.506;5.470;2023-04-25T12:07:46;10.90;68.70
78619;DHT22;67941;52.506;5.470;2023-04-25T12:10:16;10.70;68.50
78619;DHT22;67941;52.506;5.470;2023-04-25T12:12:47;10.50;68.80
78619;DHT22;67941;52.506;5.470;2023-04-25T12:15:19;10.30;68.70
78619;DHT22;67941;52.506;5.470;2023-04-25T12:17:54;10.20;68.90
78619;DHT22;67941;52.506;5.470;2023-04-25T12:20:24;10.10;68.80
78619;DHT22;67941;52.506;5.470;2023-04-25T12:22:53;10.00;68.80
78619;DHT22;67941;52.506;5.470;2023-04-25T12:25:35;10.00;68.90
78619;DHT22;67941;52.506;5.470;2023-04-25T12:28:12;10.00;68.80
78619;DHT22;67941;52.506;5.470;2023-04-25T12:30:57;10.00;68.70
78619;DHT22;67941;52.506;5.470;2023-04-25T12:33:31;10.00;68.60
78619;DHT22;67941;52.506;5.470;2023-04-25T12:36:01;10.00;68.50
78619;DHT22;67941;52.506;5.470;2023-04-25T12:38:37;10.00;68.30
78619;DHT22;67941;52.506;5.470;2023-04-25T12:41:06;10.00;68.50
78619;DHT22;67941;52.506;5.470;2023-04-25T12:43:35;10.00;68.40
78619;DHT22;67941;52.506;5.470;2023-04-25T12:46:04;9.80;68.10
78619;DHT22;67941;52.506;5.470;2023-04-25T12:48:36;9.70;68.10
78619;DHT22;67941;52.506;5.470;2023-04-25T12:51:05;9.60;68.20
78619;DHT22;67941;52.506;5.470;2023-04-25T12:53:34;9.50;68.40
78619;DHT22;67941;52.506;5.470;2023-04-25T12:56:05;9.60;68.80
78619;DHT22;67941;52.506;5.470;2023-04-25T12:58:34;9.90;69.00
78619;DHT22;67941;52.506;5.470;2023-04-25T13:01:03;10.20;69.10
78619;DHT22;67941;52.506;5.470;2023-04-25T13:03:32;10.50;69.00
78619;DHT22;67941;52.506;5.470;2023-04-25T13:06:04;10.80;68.60
78619;DHT22;67941;52.506;5.470;2023-04-25T13:08:33;10.90;68.10
78619;DHT22;67941;52.506;5.470;2023-04-25T13:11:04;10.80;67.90
78619;DHT22;67941;52.506;5.470;2023-04-25T13:13:33;10.70;67.80
78619;DHT22;67941;52.506;5.470;2023-04-25T13:16:02;10.60;68.20
78619;DHT22;67941;52.506;5.470;2023-04-25T13:18:31;10.60;68.60
78619;DHT22;67941;52.506;5.470;2023-04-25T13:21:01;10.80;68.40
78619;DHT22;67941;52.506;5.470;2023-04-25T13:23:33;11.00;68.30
78619;DHT22;67941;52.506;5.470;2023-04-25T13:26:01;11.20;68.30
78619;DHT22;67941;52.506;5.470;2023-04-25T13:28:31;11.40;68.20
78619;DHT22;67941;52.506;5.470;2023-04-25T13:31:00;11.60;67.80
78619;DHT22;67941;52.506;5.470;2023-04-25T13:33:28;11.70;67.70
78619;DHT22;67941;52.506;5.470;2023-04-25T13:35:57;11.80;67.50
78619;DHT22;67941;52.506;5.470;2023-04-25T13:38:26;11.80;67.20
78619;DHT22;67941;52.506;5.470;2023-04-25T13:40:58;11.70;66.80
78619;DHT22;67941;52.506;5.470;2023-04-25T13:43:26;11.50;66.70
78619;DHT22;67941;52.506;5.470;2023-04-25T13:45:55;11.30;66.70
78619;DHT22;67941;52.506;5.470;2023-04-25T13:48:24;11.10;66.70
78619;DHT22;67941;52.506;5.470;2023-04-25T13:50:53;10.90;66.60
78619;DHT22;67941;52.506;5.470;2023-04-25T13:53:22;10.80;66.60
78619;DHT22;67941;52.506;5.470;2023-04-25T13:55:51;10.60;66.70
78619;DHT22;67941;52.506;5.470;2023-04-25T13:58:22;10.60;66.80
78619;DHT22;67941;52.506;5.470;2023-04-25T14:00:51;10.60;67.10
78619;DHT22;67941;52.506;5.470;2023-04-25T14:03:20;10.70;67.30
78619;DHT22;67941;52.506;5.470;2023-04-25T14:05:49;10.90;67.10
78619;DHT22;67941;52.506;5.470;2023-04-25T14:08:18;11.00;66.90
78619;DHT22;67941;52.506;5.470;2023-04-25T14:10:47;11.10;66.60
78619;DHT22;67941;52.506;5.470;2023-04-25T14:13:16;11.10;66.10
78619;DHT22;67941;52.506;5.470;2023-04-25T14:15:48;10.90;65.60
78619;DHT22;67941;52.506;5.470;2023-04-25T14:18:17;10.70;65.50
78619;DHT22;67941;52.506;5.470;2023-04-25T14:20:46;10.60;65.60
78619;DHT22;67941;52.506;5.470;2023-04-25T14:23:15;10.40;65.50
78619;DHT22;67941;52.506;5.470;2023-04-25T14:25:43;10.40;65.30
78619;DHT22;67941;52.506;5.470;2023-04-25T14:28:13;10.30;65.30
78619;DHT22;67941;52.506;5.470;2023-04-25T14:30:42;10.30;65.20
78619;DHT22;67941;52.506;5.470;2023-04-25T14:33:13;10.30;65.40
78619;DHT22;67941;52.506;5.470;2023-04-25T14:35:42;10.40;65.60
78619;DHT22;67941;52.506;5.470;2023-04-25T14:38:11;10.60;65.60
78619;DHT22;67941;52.506;5.470;2023-04-25T14:40:40;10.70;65.40
78619;DHT22;67941;52.506;5.470;2023-04-25T14:43:09;10.60;65.40
78619;DHT22;67941;52.506;5.470;2023-04-25T14:45:38;10.50;65.40
78619;DHT22;67941;52.506;5.470;2023-04-25T14:48:07;10.40;65.50
78619;DHT22;67941;52.506;5.470;2023-04-25T14:50:38;10.30;65.50
78619;DHT22;67941;52.506;5.470;2023-04-25T14:53:07;10.20;65.60
78619;DHT22;67941;52.506;5.470;2023-04-25T14:55:36;10.20;65.40
78619;DHT22;67941;52.506;5.470;2023-04-25T14:58:06;10.00;65.50
78619;DHT22;67941;52.506;5.470;2023-04-25T15:00:35;10.00;65.40
78619;DHT22;67941;52.506;5.470;2023-04-25T15:03:04;9.90;65.20
78619;DHT22;67941;52.506;5.470;2023-04-25T15:05:34;9.70;65.30
78619;DHT22;67941;52.506;5.470;2023-04-25T15:08:06;9.60;65.40
78619;DHT22;67941;52.506;5.470;2023-04-25T15:10:35;9.50;65.50
78619;DHT22;67941;52.506;5.470;2023-04-25T15:13:04;9.50;65.80
78619;DHT22;67941;52.506;5.470;2023-04-25T15:15:33;9.60;66.20
78619;DHT22;67941;52.506;5.470;2023-04-25T15:18:02;10.00;66.10
78619;DHT22;67941;52.506;5.470;2023-04-25T15:20:31;10.20;65.90
78619;DHT22;67941;52.506;5.470;2023-04-25T15:23:01;10.50;65.50
78619;DHT22;67941;52.506;5.470;2023-04-25T15:25:33;10.50;65.30
78619;DHT22;67941;52.506;5.470;2023-04-25T15:28:02;10.50;65.20
78619;DHT22;67941;52.506;5.470;2023-04-25T15:30:31;10.50;65.20
78619;DHT22;67941;52.506;5.470;2023-04-25T15:33:00;10.40;65.20
78619;DHT22;67941;52.506;5.470;2023-04-25T15:35:28;10.30;65.10
78619;DHT22;67941;52.506;5.470;2023-04-25T15:37:57;10.20;65.10
78619;DHT22;67941;52.506;5.470;2023-04-25T15:40:26;10.00;65.30
78619;DHT22;67941;52.506;5.470;2023-04-25T15:42:58;9.80;65.50
78619;DHT22;67941;52.506;5.470;2023-04-25T15:45:26;9.80;65.50
78619;DHT22;67941;52.506;5.470;2023-04-25T15:47:57;9.70;65.40
78619;DHT22;67941;52.506;5.470;2023-04-25T15:50:26;9.60;65.40
78619;DHT22;67941;52.506;5.470;2023-04-25T15:52:55;9.60;65.30
78619;DHT22;67941;52.506;5.470;2023-04-25T15:55:24;9.50;65.20
78619;DHT22;67941;52.506;5.470;2023-04-25T15:57:54;9.50;65.20
78619;DHT22;67941;52.506;5.470;2023-04-25T16:00:25;9.50;65.10
78619;DHT22;67941;52.506;5.470;2023-04-25T16:02:54;9.50;65.10
78619;DHT22;67941;52.506;5.470;2023-04-25T16:05:23;9.60;65.20
78619;DHT22;67941;52.506;5.470;2023-04-25T16:07:52;9.60;65.40
78619;DHT22;67941;52.506;5.470;2023-04-25T16:10:21;9.80;65.40
78619;DHT22;67941;52.506;5.470;2023-04-25T16:12:50;10.00;65.50
78619;DHT22;67941;52.506;5.470;2023-04-25T16:15:19;10.10;65.50
78619;DHT22;67941;52.506;5.470;2023-04-25T16:17:50;10.40;65.40